Time;durP1;ratioP1;P1;durP2;ratioP2;P2;SDS_P1;SDS_P2;PMS_P1;PMS_P2;Temp;Humidity;BMP_temperature;BMP_pressure;BME280_temperature;BME280_humidity;BME280_pressure;Samples;Min_cycle;Max_cycle;Signal;HPM_P1;HPM_P2
2022/03/26 00:00:30;;;;;;;24.20;12.65;;;;;;;3.50;49.88;93934.38;5027203;28;20049;-78
2022/03/26 00:02:57;;;;;;;25.33;13.30;;;;;;;3.42;49.72;93924.97;5027063;28;20533;-77
2022/03/26 00:05:24;;;;;;;28.65;14.40;;;;;;;3.46;49.62;93942.31;5026938;28;20055;-78
2022/03/26 00:07:50;;;;;;;26.83;12.40;;;;;;;3.45;50.11;93947.53;5027208;28;20053;-78
2022/03/26 00:10:18;;;;;;;25.23;13.43;;;;;;;3.42;49.84;93953.69;5026722;28;20382;-78
2022/03/26 00:12:46;;;;;;;25.60;12.25;;;;;;;3.38;50.22;93951.59;5027236;28;20045;-78
2022/03/26 00:15:13;;;;;;;22.98;12.93;;;;;;;3.36;49.84;93948.41;5027221;28;20092;-78
2022/03/26 00:17:40;;;;;;;25.88;13.88;;;;;;;3.28;50.38;93952.47;5026795;28;20042;-78
2022/03/26 00:20:08;;;;;;;21.70;12.43;;;;;;;3.17;50.44;93937.47;5026646;28;20506;-78
2022/03/26 00:22:35;;;;;;;21.63;11.13;;;;;;;3.05;50.54;93935.16;5016018;28;20050;-78
2022/03/26 00:25:02;;;;;;;19.52;10.50;;;;;;;3.13;50.61;93948.84;5006835;28;20548;-78
2022/03/26 00:27:30;;;;;;;19.85;10.38;;;;;;;3.04;51.08;93947.97;5006802;28;20045;-77
2022/03/26 00:29:58;;;;;;;22.77;10.75;;;;;;;2.98;50.98;93928.25;5006844;28;20045;-78
2022/03/26 00:32:25;;;;;;;19.45;11.32;;;;;;;3.05;50.93;93952.91;5006590;28;20053;-78
2022/03/26 00:34:52;;;;;;;15.25;9.98;;;;;;;3.00;51.23;93946.69;5006888;28;20104;-78
2022/03/26 00:37:19;;;;;;;20.85;11.25;;;;;;;2.91;52.16;93946.59;5006878;28;20106;-78
2022/03/26 00:39:45;;;;;;;24.92;11.85;;;;;;;2.72;51.88;93928.97;5006755;28;20081;-77
2022/03/26 00:42:12;;;;;;;17.92;10.98;;;;;;;2.75;52.33;93947.25;5006780;28;20096;-78
2022/03/26 00:44:39;;;;;;;18.75;11.20;;;;;;;2.52;52.92;93942.56;5026509;28;20043;-77
2022/03/26 00:47:08;;;;;;;17.90;10.55;;;;;;;2.52;52.97;93949.38;5025971;28;20053;-77
2022/03/26 00:49:36;;;;;;;18.20;9.32;;;;;;;2.44;52.72;93942.47;5026118;28;20081;-77
2022/03/26 00:52:03;;;;;;;22.42;11.93;;;;;;;2.52;53.54;93955.25;5026316;28;20115;-77
2022/03/26 00:54:30;;;;;;;20.58;12.07;;;;;;;2.39;53.38;93945.44;5021321;28;20628;-77
2022/03/26 00:56:58;;;;;;;22.65;12.00;;;;;;;2.40;53.40;93956.34;5005663;28;20049;-77
2022/03/26 00:59:25;;;;;;;26.00;13.75;;;;;;;2.48;54.16;93963.25;5006153;28;20045;-77
2022/03/26 01:01:52;;;;;;;22.02;13.20;;;;;;;2.37;54.48;93966.78;5006855;28;20103;-77
2022/03/26 01:04:20;;;;;;;23.27;12.77;;;;;;;2.29;55.03;93962.41;5011833;28;20099;-78
2022/03/26 01:06:46;;;;;;;23.60;13.50;;;;;;;2.18;56.14;93970.19;5018155;28;20096;-77
2022/03/26 01:09:13;;;;;;;22.42;12.50;;;;;;;2.04;56.10;93956.25;5019060;28;20053;-77
2022/03/26 01:11:40;;;;;;;22.92;13.45;;;;;;;2.16;55.23;93972.88;5016371;28;20042;-77
2022/03/26 01:14:08;;;;;;;21.58;13.27;;;;;;;2.11;55.86;93975.81;5009564;28;20046;-77
2022/03/26 01:16:35;;;;;;;22.27;12.95;;;;;;;2.11;55.42;93983.44;5009679;28;20048;-77
2022/03/26 01:19:02;;;;;;;25.92;13.02;;;;;;;2.14;55.36;93985.66;5009185;28;20164;-78
2022/03/26 01:21:30;;;;;;;25.55;14.75;;;;;;;2.10;55.41;93981.03;5007251;28;20084;-77
2022/03/26 01:23:57;;;;;;;22.75;13.43;;;;;;;2.05;55.09;93983.97;5009600;28;20045;-77
2022/03/26 01:26:24;;;;;;;25.33;14.32;;;;;;;2.01;55.12;93980.13;5009474;28;20069;-77
2022/03/26 01:28:51;;;;;;;29.45;16.58;;;;;;;2.03;54.97;93983.31;5009482;28;20042;-77
2022/03/26 01:31:19;;;;;;;29.40;17.00;;;;;;;1.99;55.61;93987.84;5009233;28;20446;-77
2022/03/26 01:33:48;;;;;;;24.42;14.13;;;;;;;2.00;55.41;93994.50;5009008;28;20085;-77
2022/03/26 01:36:15;;;;;;;23.88;12.40;;;;;;;1.98;55.17;93990.50;5009238;28;20121;-77
2022/03/26 01:38:43;;;;;;;18.63;11.77;;;;;;;1.98;55.27;93998.13;5009320;28;20068;-77
2022/03/26 01:41:11;;;;;;;20.33;11.43;;;;;;;1.93;55.69;93990.13;5006754;28;20565;-77
2022/03/26 01:43:40;;;;;;;19.67;11.07;;;;;;;1.90;55.53;94000.56;5009346;28;20042;-77
2022/03/26 01:46:06;;;;;;;20.13;11.13;;;;;;;1.09;55.58;93874.19;5008755;28;20049;-77
2022/03/26 01:48:33;;;;;;;20.27;11.40;;;;;;;1.86;56.18;93998.28;4997522;28;20038;-76
2022/03/26 01:51:14;;;;;;;17.95;10.40;;;;;;;1.71;56.26;93980.19;5009059;28;20049;-76
2022/03/26 01:53:43;;;;;;;17.23;10.32;;;;;;;1.80;55.76;94001.34;5009040;28;20042;-77
2022/03/26 01:56:11;;;;;;;19.67;11.85;;;;;;;1.76;56.41;93997.50;5006967;28;20037;-77
2022/03/26 01:58:38;;;;;;;21.35;11.32;;;;;;;1.69;56.23;93991.38;5009606;28;20414;-77
2022/03/26 02:01:05;;;;;;;21.40;11.93;;;;;;;1.76;55.63;94001.78;5009174;28;20100;-77
2022/03/26 02:03:31;;;;;;;19.35;11.15;;;;;;;1.73;55.95;94000.31;5007177;28;20033;-76
2022/03/26 02:05:58;;;;;;;20.10;11.07;;;;;;;1.64;55.87;94001.13;5009497;28;20052;-79
2022/03/26 02:08:25;;;;;;;19.33;11.65;;;;;;;1.63;56.47;94007.94;5008958;28;20136;-78
2022/03/26 02:10:54;;;;;;;16.65;10.77;;;;;;;1.51;56.84;94006.44;5009517;28;20042;-78
2022/03/26 02:13:21;;;;;;;16.30;9.70;;;;;;;1.32;57.59;93995.41;5009088;28;20128;-77
2022/03/26 02:15:48;;;;;;;16.75;10.38;;;;;;;1.36;57.86;93999.28;5008504;28;20104;-78
2022/03/26 02:18:15;;;;;;;17.40;9.85;;;;;;;1.36;57.96;94017.00;5012269;28;20038;-77
2022/03/26 02:20:44;;;;;;;17.50;10.63;;;;;;;1.32;57.81;94018.19;5012766;28;20042;-77
2022/03/26 02:23:11;;;;;;;19.60;11.10;;;;;;;1.27;58.12;94025.38;5013579;28;20437;-77
2022/03/26 02:25:38;;;;;;;25.30;12.15;;;;;;;1.19;58.84;94018.44;5013353;28;20045;-77
2022/03/26 02:28:05;;;;;;;26.25;12.68;;;;;;;1.06;58.79;94022.00;5012643;28;20141;-77
2022/03/26 02:30:33;;;;;;;21.30;11.57;;;;;;;0.99;59.66;94015.88;5012720;28;20100;-77
2022/03/26 02:33:00;;;;;;;24.45;12.02;;;;;;;0.88;62.10;94019.31;5012615;28;20052;-77
2022/03/26 02:35:27;;;;;;;20.15;11.48;;;;;;;0.80;61.72;94019.97;5012689;28;20037;-76
2022/03/26 02:37:55;;;;;;;22.92;11.35;;;;;;;0.71;62.43;94008.09;5012606;28;20096;-76
2022/03/26 02:40:22;;;;;;;19.63;11.45;;;;;;;0.75;62.54;94022.06;5012433;28;20034;-77
2022/03/26 02:42:49;;;;;;;19.33;11.63;;;;;;;0.80;62.47;94031.81;5010276;28;20101;-77
2022/03/26 02:45:15;;;;;;;25.30;11.98;;;;;;;0.77;61.25;94000.00;5012631;28;20088;-76
2022/03/26 02:47:42;;;;;;;19.48;12.02;;;;;;;0.86;60.74;94016.13;5012360;28;20579;-77
2022/03/26 02:50:10;;;;;;;23.23;12.80;;;;;;;0.86;60.29;94023.72;5010137;28;20069;-78
2022/03/26 02:52:37;;;;;;;22.20;12.75;;;;;;;0.73;60.90;93998.66;5012501;28;20049;-78
2022/03/26 02:55:09;;;;;;;30.23;15.35;;;;;;;0.85;59.56;94008.66;5011887;28;20077;-78
2022/03/26 02:57:36;;;;;;;22.52;12.45;;;;;;;0.85;59.56;94032.25;5012068;28;20125;-78
2022/03/26 03:00:03;;;;;;;27.95;13.75;;;;;;;0.70;59.81;94020.88;5012080;28;20042;-77
2022/03/26 03:02:30;;;;;;;21.85;14.38;;;;;;;0.79;59.25;94031.00;5009864;28;20049;-78
2022/03/26 03:04:56;;;;;;;20.70;11.45;;;;;;;0.75;59.75;94027.13;5011827;28;20045;-78
2022/03/26 03:07:23;;;;;;;23.58;14.23;;;;;;;0.57;60.05;94010.97;5011948;28;20128;-77
2022/03/26 03:09:50;;;;;;;21.30;11.73;;;;;;;0.67;59.83;94029.50;5012274;28;20045;-77
2022/03/26 03:12:20;;;;;;;23.50;12.30;;;;;;;0.66;60.38;94031.22;5011835;28;20448;-78
2022/03/26 03:14:47;;;;;;;21.13;12.27;;;;;;;0.53;60.38;94021.38;5011592;28;20046;-78
2022/03/26 03:17:14;;;;;;;19.25;11.02;;;;;;;0.63;60.38;94034.03;5012548;28;20476;-79
2022/03/26 03:19:41;;;;;;;19.25;10.95;;;;;;;0.60;61.02;94036.03;5012062;28;20499;-79
2022/03/26 03:22:08;;;;;;;20.38;11.57;;;;;;;0.55;61.25;94040.66;5011438;28;20174;-79
2022/03/26 03:24:35;;;;;;;19.80;11.90;;;;;;;0.35;61.35;94005.19;5011540;28;20045;-78
2022/03/26 03:27:02;;;;;;;21.15;11.32;;;;;;;0.43;62.76;94038.22;5011288;28;20096;-78
2022/03/26 03:29:30;;;;;;;20.30;11.60;;;;;;;0.12;62.99;94003.63;5008325;28;20403;-78
2022/03/26 03:31:57;;;;;;;19.08;11.45;;;;;;;0.12;63.62;94013.75;5011485;28;20140;-78
2022/03/26 03:34:24;;;;;;;21.75;12.20;;;;;;;0.30;63.05;94045.19;5011473;28;20054;-78
2022/03/26 03:36:50;;;;;;;19.77;12.02;;;;;;;0.28;63.15;94031.88;5011624;28;20426;-78
2022/03/26 03:39:17;;;;;;;19.60;11.20;;;;;;;0.24;62.31;94014.44;5011429;28;20084;-78
2022/03/26 03:41:44;;;;;;;21.35;12.70;;;;;;;0.44;62.16;94039.81;5011508;28;20100;-76
2022/03/26 03:44:11;;;;;;;23.58;13.77;;;;;;;0.49;61.91;94040.22;5011298;28;20434;-77
2022/03/26 03:46:39;;;;;;;24.45;13.57;;;;;;;0.47;62.47;94038.75;5011247;28;20713;-77
2022/03/26 03:49:06;;;;;;;27.10;13.63;;;;;;;0.34;62.63;94027.16;5011328;28;20042;-77
2022/03/26 03:51:32;;;;;;;26.67;15.40;;;;;;;0.37;62.97;94043.78;5011101;28;20486;-77
2022/03/26 03:53:59;;;;;;;27.73;14.90;;;;;;;0.24;62.49;94024.53;5010911;28;20042;-77
2022/03/26 03:56:26;;;;;;;27.88;15.98;;;;;;;0.32;62.12;94041.63;5011108;28;20041;-78
2022/03/26 03:58:53;;;;;;;30.95;14.82;;;;;;;0.22;63.03;94030.66;5011235;28;20053;-78
2022/03/26 04:01:19;;;;;;;25.00;15.05;;;;;;;0.25;62.51;94041.34;5011224;28;20091;-78
2022/03/26 04:03:47;;;;;;;20.52;13.35;;;;;;;0.23;61.48;94045.69;5010597;28;20549;-78
2022/03/26 04:06:14;;;;;;;23.85;12.45;;;;;;;-0.14;61.73;93998.97;5010785;28;20057;-80
2022/03/26 04:08:41;;;;;;;18.08;11.90;;;;;;;0.11;61.54;94050.03;5010827;28;20057;-79
2022/03/26 04:11:08;;;;;;;19.77;11.65;;;;;;;0.08;62.01;94054.50;5008038;28;20069;-80
2022/03/26 04:13:35;;;;;;;22.60;12.40;;;;;;;0.05;62.11;94057.31;5010943;28;20053;-79
2022/03/26 04:16:02;;;;;;;24.23;13.25;;;;;;;0.03;62.71;94051.56;5010597;28;20034;-79
2022/03/26 04:18:28;;;;;;;27.83;14.05;;;;;;;-0.04;62.59;94046.22;5010398;28;20506;-79
2022/03/26 04:20:57;;;;;;;24.00;14.15;;;;;;;0.03;62.99;94059.94;5010682;28;20088;-78
2022/03/26 04:23:24;;;;;;;21.48;13.27;;;;;;;-0.14;64.64;94058.75;5010668;28;20052;-76
2022/03/26 04:25:51;;;;;;;24.58;13.20;;;;;;;-0.23;64.28;94060.31;5010775;28;20038;-76
2022/03/26 04:28:18;;;;;;;25.10;13.48;;;;;;;-0.18;64.71;94058.22;5010391;28;20096;-76
2022/03/26 04:30:44;;;;;;;29.85;15.00;;;;;;;-0.24;64.35;94046.09;5010256;28;20054;-76
2022/03/26 04:33:12;;;;;;;25.83;16.40;;;;;;;-0.14;65.99;94059.56;5010608;28;20042;-76
2022/03/26 04:35:38;;;;;;;25.30;15.15;;;;;;;-0.11;64.79;94057.72;5010608;28;20041;-76
2022/03/26 04:38:07;;;;;;;55.15;29.70;;;;;;;-0.13;66.36;94065.44;5011065;28;20135;-76
2022/03/26 04:40:34;;;;;;;50.83;31.17;;;;;;;-0.25;65.88;94049.53;5009966;28;20725;-76
2022/03/26 04:43:01;;;;;;;48.20;28.73;;;;;;;-0.16;66.85;94074.06;5010314;28;20116;-76
2022/03/26 04:45:29;;;;;;;39.50;24.50;;;;;;;-0.29;66.51;94060.78;5009808;28;20487;-77
2022/03/26 04:47:56;;;;;;;44.08;24.65;;;;;;;-0.17;65.24;94067.41;5010372;28;20095;-76
2022/03/26 04:50:23;;;;;;;43.10;23.50;;;;;;;-0.06;64.74;94073.31;5010533;28;20057;-77
2022/03/26 04:52:50;;;;;;;50.60;21.60;;;;;;;-0.05;64.81;94074.94;5010429;28;20487;-76
2022/03/26 04:55:18;;;;;;;55.22;29.30;;;;;;;-0.15;64.38;94063.03;5010086;28;20496;-76
2022/03/26 04:57:47;;;;;;;42.83;23.25;;;;;;;-0.01;64.46;94079.59;5010177;28;20042;-76
2022/03/26 05:00:16;;;;;;;40.10;18.95;;;;;;;0.04;63.73;94086.81;5010090;28;20655;-76
2022/03/26 05:02:43;;;;;;;38.42;19.08;;;;;;;0.08;64.67;94079.78;5010137;28;20060;-76
2022/03/26 05:05:12;;;;;;;32.75;17.02;;;;;;;0.04;64.44;94076.69;5007595;28;20046;-76
2022/03/26 05:07:49;;;;;;;33.28;16.60;;;;;;;0.08;63.86;94075.53;5009322;28;20048;-76
2022/03/26 05:10:19;;;;;;;26.05;14.85;;;;;;;0.24;63.73;94092.00;5008470;28;20046;-77
2022/03/26 05:12:47;;;;;;;29.17;13.82;;;;;;;0.27;63.40;94091.72;5010283;28;20057;-77
2022/03/26 05:15:14;;;;;;;25.63;13.68;;;;;;;0.32;64.02;94092.16;5009986;28;20450;-76
2022/03/26 05:17:41;;;;;;;24.88;12.70;;;;;;;0.39;62.76;94087.41;5009903;28;20070;-77
2022/03/26 05:20:11;;;;;;;18.23;11.25;;;;;;;0.50;62.46;94099.97;5007494;28;20568;-78
2022/03/26 05:22:39;;;;;;;22.92;11.55;;;;;;;0.57;62.87;94096.94;5009556;28;20125;-77
2022/03/26 05:25:07;;;;;;;21.33;11.95;;;;;;;0.65;62.27;94097.13;5009705;28;20045;-78
2022/03/26 05:27:43;;;;;;;23.67;11.80;;;;;;;0.75;62.62;94104.75;5007847;28;20112;-80
2022/03/26 05:30:18;;;;;;;24.50;12.80;;;;;;;0.71;62.53;94081.44;5009713;28;20038;-79
2022/03/26 05:32:51;;;;;;;25.95;14.68;;;;;;;0.97;62.10;94100.44;5012282;28;20061;-78
2022/03/26 05:35:19;;;;;;;25.23;13.80;;;;;;;0.97;61.84;94082.72;5008943;28;20100;-79
2022/03/26 05:37:47;;;;;;;33.05;14.77;;;;;;;1.27;61.44;94104.66;5009717;28;20041;-79
2022/03/26 05:40:17;;;;;;;26.25;13.98;;;;;;;1.35;61.08;94090.53;5009804;28;20049;-79
2022/03/26 05:42:47;;;;;;;27.83;14.48;;;;;;;1.57;61.31;94102.94;5009836;28;20133;-79
2022/03/26 05:45:15;;;;;;;27.63;15.32;;;;;;;1.65;60.56;94093.88;5012245;28;20046;-78
2022/03/26 05:47:42;;;;;;;25.52;15.30;;;;;;;1.90;60.97;94096.81;5009793;28;20054;-80
2022/03/26 05:50:12;;;;;;;31.33;16.67;;;;;;;2.04;59.64;94090.56;5009614;28;20092;-81
2022/03/26 05:52:40;;;;;;;29.55;17.58;;;;;;;2.15;59.05;94087.88;5009046;28;20053;-80
2022/03/26 05:55:08;;;;;;;30.40;18.50;;;;;;;2.42;58.12;94096.50;5009164;28;20550;-80
2022/03/26 05:57:34;;;;;;;33.20;18.88;;;;;;;2.79;56.56;94105.84;5009383;28;20038;-80
2022/03/26 06:00:05;;;;;;;31.67;19.02;;;;;;;2.71;56.31;94059.28;5009670;28;20050;-80
2022/03/26 06:02:33;;;;;;;31.73;18.55;;;;;;;3.25;55.48;94110.22;5026147;28;20057;-80
2022/03/26 06:05:00;;;;;;;36.58;20.02;;;;;;;3.47;54.70;94098.84;5029215;28;20056;-80
2022/03/26 06:07:27;;;;;;;32.17;18.88;;;;;;;3.50;53.65;94067.28;5028807;28;20474;-79
2022/03/26 06:09:54;;;;;;;33.22;20.00;;;;;;;3.69;53.36;94068.88;5018019;28;20042;-79
2022/03/26 06:12:22;;;;;;;32.88;20.02;;;;;;;3.97;53.63;94065.41;4998594;28;20054;-79
2022/03/26 06:14:49;;;;;;;28.30;18.10;;;;;;;4.45;52.13;94106.63;5008591;28;20045;-80
2022/03/26 06:17:18;;;;;;;31.10;19.90;;;;;;;4.11;53.08;94018.31;5009419;28;20422;-80
2022/03/26 06:19:45;;;;;;;29.13;17.98;;;;;;;5.03;51.73;94106.09;5009157;28;20497;-80
2022/03/26 06:22:12;;;;;;;35.70;20.48;;;;;;;5.14;50.91;94082.91;5026681;28;20042;-79
2022/03/26 06:24:43;;;;;;;30.52;18.92;;;;;;;5.56;50.05;94106.75;5029174;28;20054;-79
2022/03/26 06:27:11;;;;;;;34.03;20.45;;;;;;;5.69;50.12;94080.03;5011247;28;20047;-80
2022/03/26 06:29:38;;;;;;;34.80;20.95;;;;;;;6.09;48.72;94101.44;5029063;28;20100;-79
2022/03/26 06:32:06;;;;;;;34.63;20.88;;;;;;;6.01;48.39;94058.03;5028645;28;20128;-80
2022/03/26 06:34:35;;;;;;;38.58;19.77;;;;;;;6.59;48.23;94105.69;5028985;28;20065;-80
2022/03/26 06:37:03;;;;;;;36.05;21.88;;;;;;;6.87;48.92;94095.91;5028776;28;20049;-80
2022/03/26 06:39:30;;;;;;;34.72;21.67;;;;;;;7.17;47.47;94103.78;5028662;28;20124;-80
2022/03/26 06:41:59;;;;;;;36.28;21.20;;;;;;;7.34;48.01;94083.25;5028948;28;20061;-80
2022/03/26 06:44:27;;;;;;;35.63;20.52;;;;;;;7.60;45.73;94080.38;5014375;28;20046;-80
2022/03/26 06:46:54;;;;;;;31.45;19.17;;;;;;;7.69;45.30;94058.09;5009156;28;20132;-80
2022/03/26 06:49:21;;;;;;;33.95;20.17;;;;;;;8.11;44.37;94106.44;5009166;28;20054;-82
2022/03/26 06:51:50;;;;;;;30.13;18.42;;;;;;;8.34;43.92;94111.50;5028482;28;20057;-79
2022/03/26 06:54:18;;;;;;;29.02;18.38;;;;;;;8.50;43.64;94105.47;5028871;28;20045;-80
2022/03/26 06:56:45;;;;;;;29.30;17.65;;;;;;;8.45;42.64;94063.41;5028540;28;20072;-80
2022/03/26 06:59:12;;;;;;;25.88;15.73;;;;;;;8.78;40.77;94097.22;5012921;28;20049;-80
2022/03/26 07:01:41;;;;;;;27.98;16.30;;;;;;;9.15;41.53;94122.13;5007400;28;20057;-80
2022/03/26 07:04:08;;;;;;;28.23;15.70;;;;;;;9.27;40.62;94109.66;5009857;28;20054;-80
2022/03/26 07:06:36;;;;;;;21.02;13.55;;;;;;;9.08;39.19;94102.34;5012304;28;20542;-80
2022/03/26 07:09:05;;;;;;;25.10;14.25;;;;;;;9.01;39.51;94109.16;5011059;28;20077;-80
2022/03/26 07:11:32;;;;;;;20.05;11.80;;;;;;;9.06;40.05;94100.91;5012137;28;20073;-80
2022/03/26 07:13:59;;;;;;;19.13;10.88;;;;;;;8.79;39.48;94011.72;5012544;28;20041;-80
2022/03/26 07:16:26;;;;;;;19.63;10.02;;;;;;;9.78;38.92;94126.00;5012524;28;20137;-79
2022/03/26 07:18:55;;;;;;;15.30;8.85;;;;;;;10.15;38.77;94119.06;5012229;28;20061;-80
2022/03/26 07:21:23;;;;;;;14.02;8.88;;;;;;;9.72;36.64;94109.59;5023160;28;20095;-80
2022/03/26 07:23:51;;;;;;;17.90;9.70;;;;;;;10.26;38.79;94120.34;5032144;28;20056;-80
2022/03/26 07:26:23;;;;;;;16.00;9.32;;;;;;;10.34;37.39;94076.56;5031634;28;20621;-81
2022/03/26 07:28:51;;;;;;;17.73;10.27;;;;;;;10.13;36.03;94087.63;5031400;28;20045;-80
2022/03/26 07:31:19;;;;;;;21.48;12.25;;;;;;;10.12;36.53;94117.66;5031928;28;20128;-81
2022/03/26 07:33:47;;;;;;;35.28;18.80;;;;;;;9.96;36.85;94108.41;5031400;28;20121;-80
2022/03/26 07:36:15;;;;;;;18.83;11.85;;;;;;;10.22;38.32;94103.69;5031599;28;20133;-80
2022/03/26 07:38:43;;;;;;;17.58;10.63;;;;;;;10.71;36.96;94101.31;5031382;28;20056;-80
2022/03/26 07:41:10;;;;;;;15.55;9.82;;;;;;;11.19;37.20;94129.69;5031367;28;20048;-80
2022/03/26 07:43:39;;;;;;;18.55;8.15;;;;;;;10.69;34.72;94070.66;5024010;28;20080;-81
2022/03/26 07:46:07;;;;;;;14.40;8.70;;;;;;;10.81;33.49;94115.44;5011955;28;20049;-81
2022/03/26 07:48:34;;;;;;;11.77;7.68;;;;;;;10.89;33.87;94129.94;5011831;28;20119;-80
2022/03/26 07:51:01;;;;;;;14.50;7.57;;;;;;;10.69;35.32;94086.91;5012186;28;20076;-80
2022/03/26 07:53:29;;;;;;;15.55;8.75;;;;;;;11.43;34.41;94131.97;5011871;28;20141;-80
2022/03/26 07:55:57;;;;;;;15.40;8.27;;;;;;;11.69;34.11;94115.84;5011217;28;20046;-81
2022/03/26 07:58:25;;;;;;;17.67;9.40;;;;;;;11.11;32.69;94060.41;5011377;28;20509;-80
2022/03/26 08:00:54;;;;;;;18.35;8.77;;;;;;;11.49;33.18;94105.47;5003626;28;20406;-81
2022/03/26 08:03:23;;;;;;;17.98;8.10;;;;;;;10.72;33.36;94124.28;5011135;28;20046;-81
2022/03/26 08:05:50;;;;;;;18.73;8.57;;;;;;;11.15;32.80;94123.31;5011310;28;20088;-81
2022/03/26 08:08:18;;;;;;;14.93;7.90;;;;;;;11.33;32.56;94112.53;5010800;28;20132;-81
2022/03/26 08:10:45;;;;;;;15.63;7.28;;;;;;;11.35;32.96;94071.19;5011886;28;20136;-81
2022/03/26 08:13:15;;;;;;;20.13;8.85;;;;;;;11.78;31.96;94124.16;5011925;28;20053;-81
2022/03/26 08:15:42;;;;;;;18.60;9.43;;;;;;;11.55;32.72;94109.84;5011524;28;20129;-80
2022/03/26 08:18:11;;;;;;;20.92;9.23;;;;;;;11.06;33.38;94088.50;5011861;28;20101;-80
2022/03/26 08:20:39;;;;;;;22.98;10.80;;;;;;;11.93;34.49;94130.94;5011299;28;20046;-80
2022/03/26 08:23:07;;;;;;;18.15;10.00;;;;;;;11.92;34.51;94057.25;5011439;28;20088;-80
2022/03/26 08:28:19;;;;;;;20.23;10.65;;;;;;;12.56;36.60;94068.75;5011761;28;20045;-80
2022/03/26 08:30:46;;;;;;;17.77;10.95;;;;;;;12.31;37.63;94117.53;5010446;28;20046;-80
2022/03/26 08:33:20;;;;;;;19.13;10.75;;;;;;;12.43;37.94;94094.56;5010973;28;20092;-81
2022/03/26 08:35:48;;;;;;;20.52;11.80;;;;;;;12.61;38.09;94117.16;5010443;28;20462;-83
2022/03/26 08:38:16;;;;;;;19.73;11.88;;;;;;;12.46;37.11;94107.06;5010914;28;20096;-82
2022/03/26 08:40:43;;;;;;;18.20;11.10;;;;;;;12.76;36.94;94057.63;5010790;28;20042;-82
2022/03/26 08:43:10;;;;;;;21.40;11.05;;;;;;;13.54;36.18;94114.56;5011149;28;20088;-82
2022/03/26 08:45:40;;;;;;;17.85;10.00;;;;;;;13.76;35.46;94104.72;5010413;28;20065;-81
2022/03/26 08:48:08;;;;;;;18.13;9.32;;;;;;;12.75;35.58;94044.94;5010289;28;20065;-80
2022/03/26 08:50:37;;;;;;;14.35;7.38;;;;;;;13.52;35.49;94110.59;5010301;28;20045;-79
2022/03/26 08:53:04;;;;;;;15.52;7.43;;;;;;;13.75;35.97;94105.72;5010157;28;20053;-79
2022/03/26 08:55:32;;;;;;;13.57;6.65;;;;;;;14.23;34.12;94101.06;5010052;28;20078;-80
2022/03/26 08:57:59;;;;;;;17.00;9.52;;;;;;;14.32;33.89;94103.38;5010125;28;20129;-80
2022/03/26 09:00:27;;;;;;;13.68;7.35;;;;;;;14.59;33.71;94100.59;5010394;28;20085;-80
2022/03/26 09:02:54;;;;;;;11.18;6.40;;;;;;;14.79;32.52;94103.81;5010932;28;20595;-80
2022/03/26 09:05:22;;;;;;;37.65;17.95;;;;;;;14.43;33.03;94103.50;5010826;28;20403;-80
2022/03/26 09:07:51;;;;;;;10.65;7.10;;;;;;;13.10;34.15;94071.22;5010227;28;20062;-80
2022/03/26 09:10:18;;;;;;;13.15;6.43;;;;;;;14.07;34.18;94110.09;5010509;28;20041;-80
2022/03/26 09:12:46;;;;;;;15.65;6.32;;;;;;;14.08;35.09;94035.97;5010422;28;20050;-80
2022/03/26 09:15:13;;;;;;;12.23;6.13;;;;;;;14.32;32.07;94098.22;5010722;28;20133;-79
2022/03/26 09:17:40;;;;;;;10.73;6.30;;;;;;;13.54;32.40;94060.38;5010339;28;20507;-80
2022/03/26 09:20:09;;;;;;;13.68;6.40;;;;;;;12.77;33.94;94105.63;5010385;28;20049;-79
2022/03/26 09:22:37;;;;;;;11.50;6.22;;;;;;;12.67;33.91;94040.78;5029643;28;21563;-80
2022/03/26 09:25:06;;;;;;;15.15;6.65;;;;;;;12.83;33.80;94101.47;5029351;28;20345;-81
2022/03/26 09:27:33;;;;;;;14.00;7.95;;;;;;;12.83;33.84;94078.25;5029221;28;20057;-80
2022/03/26 09:30:00;;;;;;;13.57;7.25;;;;;;;13.15;34.16;94082.72;5030021;28;20049;-79
2022/03/26 09:32:27;;;;;;;13.30;6.18;;;;;;;13.83;33.40;94094.34;5030049;28;20041;-80
2022/03/26 09:34:54;;;;;;;13.45;6.40;;;;;;;13.78;32.48;94098.56;5018541;28;20045;-80
2022/03/26 09:37:21;;;;;;;12.07;6.25;;;;;;;12.81;33.56;94072.50;5024596;28;20128;-80
2022/03/26 09:39:49;;;;;;;10.57;6.50;;;;;;;12.51;33.30;94029.91;5013997;28;20045;-80
2022/03/26 09:42:18;;;;;;;10.60;6.07;;;;;;;13.04;32.68;94069.47;5009643;28;20052;-80
2022/03/26 09:44:45;;;;;;;13.68;5.28;;;;;;;12.97;32.86;94024.84;5009691;28;20046;-80
2022/03/26 09:47:12;;;;;;;8.55;5.55;;;;;;;13.93;32.83;94088.72;5009864;28;20045;-81
2022/03/26 09:49:39;;;;;;;13.32;6.20;;;;;;;14.52;30.84;94069.59;5008688;28;20373;-80
2022/03/26 09:52:07;;;;;;;8.43;4.63;;;;;;;14.22;29.05;94024.56;5008655;28;20050;-82
2022/03/26 09:54:34;;;;;;;8.32;5.07;;;;;;;14.09;29.25;94063.41;5009607;28;20046;-81
2022/03/26 09:57:01;;;;;;;10.73;5.30;;;;;;;12.94;30.59;94081.97;5010247;28;20149;-81
2022/03/26 09:59:30;;;;;;;8.35;5.95;;;;;;;12.66;31.93;94045.16;5010116;28;20476;-81
2022/03/26 10:01:57;;;;;;;9.82;6.13;;;;;;;12.79;33.37;94074.50;5009756;28;20046;-80
2022/03/26 10:04:26;;;;;;;13.35;5.43;;;;;;;12.31;32.14;93960.38;5009578;28;20054;-80
2022/03/26 10:06:54;;;;;;;11.00;5.82;;;;;;;13.10;32.20;94052.38;5009427;28;20045;-80
2022/03/26 10:09:33;;;;;;;9.90;5.53;;;;;;;13.67;33.25;94015.63;5009127;28;20553;-81
2022/03/26 10:12:00;;;;;;;12.65;6.25;;;;;;;13.24;31.39;93973.13;5009626;28;20368;-81
2022/03/26 10:14:45;;;;;;;12.48;5.65;;;;;;;13.72;32.39;94000.28;5009063;28;20127;-80
2022/03/26 10:17:17;;;;;;;9.93;5.35;;;;;;;14.40;31.44;94049.63;5009174;28;20046;-80
2022/03/26 10:19:45;;;;;;;7.43;4.57;;;;;;;13.73;30.05;94026.88;5009319;28;20050;-81
2022/03/26 10:22:35;;;;;;;9.23;5.30;;;;;;;14.18;29.83;94030.34;5005962;28;20487;-80
2022/03/26 10:25:07;;;;;;;13.00;5.72;;;;;;;14.45;29.10;94005.06;5007288;28;20538;-82
2022/03/26 10:27:38;;;;;;;16.83;5.63;;;;;;;15.16;30.42;94012.47;5009579;28;20049;-82
2022/03/26 10:30:07;;;;;;;8.32;5.03;;;;;;;15.68;28.32;94039.69;5009522;28;20538;-82
2022/03/26 10:32:49;;;;;;;12.35;5.15;;;;;;;14.64;29.50;94010.25;5009841;28;20050;-82
2022/03/26 10:35:21;;;;;;;8.60;5.05;;;;;;;14.89;29.53;94030.91;5009066;28;20057;-81
2022/03/26 10:37:59;;;;;;;11.32;5.03;;;;;;;14.90;29.75;94032.47;5009588;28;20061;-81
2022/03/26 10:40:32;;;;;;;10.93;5.10;;;;;;;14.65;28.96;94027.31;5013064;28;20463;-82
2022/03/26 10:43:10;;;;;;;9.63;5.47;;;;;;;14.57;30.23;93974.91;5013083;28;20721;-79
2022/03/26 10:45:49;;;;;;;9.93;4.85;;;;;;;15.21;30.52;93981.56;5013030;28;20049;-79
2022/03/26 10:48:23;;;;;;;10.82;4.22;;;;;;;15.40;29.47;94009.19;5012969;28;20450;-80
2022/03/26 10:50:56;;;;;;;7.72;5.15;;;;;;;15.43;29.41;94003.56;5012923;28;20487;-80
2022/03/26 10:53:22;;;;;;;8.52;4.75;;;;;;;15.20;30.16;93964.47;5010261;28;20041;-80
2022/03/26 10:55:49;;;;;;;10.30;5.18;;;;;;;16.06;30.18;94011.06;5013141;28;20046;-80
2022/03/26 10:58:16;;;;;;;12.25;5.43;;;;;;;16.27;30.36;93956.09;5012229;28;20120;-81
2022/03/26 11:00:44;;;;;;;18.23;5.10;;;;;;;16.98;28.99;94003.66;5001532;28;20478;-81
2022/03/26 11:03:12;;;;;;;11.55;5.22;;;;;;;17.06;28.89;93979.19;5012592;28;20046;-80
2022/03/26 11:05:41;;;;;;;14.45;6.63;;;;;;;17.39;28.83;93982.13;5013257;28;20037;-80
2022/03/26 11:08:12;;;;;;;14.68;6.30;;;;;;;17.71;28.82;93992.81;5012661;28;20057;-81
2022/03/26 11:10:39;;;;;;;13.82;4.30;;;;;;;17.81;27.98;93961.00;5012447;28;20049;-81
2022/03/26 11:13:11;;;;;;;10.35;5.10;;;;;;;18.05;28.38;93962.66;5011972;28;20042;-81
2022/03/26 11:15:42;;;;;;;9.98;4.95;;;;;;;18.25;28.28;93957.78;5012838;28;20037;-81
2022/03/26 11:18:48;;;;;;;10.60;4.15;;;;;;;17.89;26.77;93926.84;5013051;28;20104;-81
2022/03/26 11:22:01;;;;;;;11.15;4.97;;;;;;;18.13;27.65;93924.06;4992773;28;20041;-81
2022/03/26 11:24:57;;;;;;;11.57;4.32;;;;;;;18.30;27.19;93926.63;5031740;28;20049;-81
2022/03/26 11:27:40;;;;;;;8.02;4.15;;;;;;;17.70;26.60;93933.28;5004497;28;20053;-81
2022/03/26 11:30:16;;;;;;;8.02;4.75;;;;;;;16.40;27.44;93949.09;5031382;28;20100;-80
2022/03/26 11:32:46;;;;;;;9.20;4.60;;;;;;;15.83;28.64;93953.00;5031522;28;20081;-80